Terminal Aerodrome Forecast
Issued by NWS

Home | Current Version | Previous Version | Text Only | Print | Product List | Glossary On
Versions: 1 2 3 4 5 6 7 8 9 10 11 12 13 14 15
000
FTUS43 KEAX 281720
TAFSTJ
TAF
KSTJ 281720Z 2818/2918 20014G22KT P6SM SCT250
     FM290100 22010KT P6SM BKN250
     FM290400 24008KT P6SM VCTS BKN050CB
     FM290700 31007KT 5SM -TSRA BKN050CB
     FM291100 35007KT P6SM BKN080=

USA.gov is the U.S. government's official web portal to all federal, state and local government web resources and services.